createdAt,value
2019-02-19T00:15:38.396Z,101429.56
2019-02-19T00:19:01.385Z,101428.94
2019-02-19T00:21:43.517Z,101434.42
2019-02-19T00:24:16.645Z,101426.09
2019-02-19T00:26:56.079Z,101418.55
2019-02-19T00:29:58.773Z,101416.16
2019-02-19T00:32:40.183Z,101423.81
2019-02-19T00:35:37.173Z,101428.84
2019-02-19T00:38:06.454Z,101430.11
2019-02-19T00:40:37.021Z,101431.92
2019-02-19T00:43:06.269Z,101441.86
2019-02-19T00:45:36.877Z,101441.86
2019-02-19T00:48:06.183Z,101440.95
2019-02-19T00:50:36.399Z,101448.16
2019-02-19T00:53:06.911Z,101449.97
2019-02-19T00:55:36.124Z,101454.34
2019-02-19T00:58:07.827Z,101454.34
2019-02-19T01:00:38.002Z,101443.90
2019-02-19T01:03:07.182Z,101435.89
2019-02-19T01:05:36.280Z,101438.41
2019-02-19T01:08:05.391Z,101440.92
2019-02-19T01:10:34.754Z,101441.08
2019-02-19T01:13:04.122Z,101444.44
2019-02-19T01:15:33.223Z,101445.68
2019-02-19T01:18:03.652Z,101442.77
2019-02-19T01:20:32.688Z,101442.95
2019-02-19T01:23:01.709Z,101446.63
2019-02-19T01:25:31.199Z,101449.92
2019-02-19T01:28:00.289Z,101448.34
2019-02-19T01:30:29.380Z,101448.34
2019-02-19T01:32:58.530Z,101437.95
2019-02-19T01:35:27.663Z,101439.91
2019-02-19T01:37:56.740Z,101438.97
2019-02-19T01:40:26.237Z,101438.97
2019-02-19T01:42:55.323Z,101446.87
2019-02-19T01:45:24.545Z,101446.87
2019-02-19T01:47:53.565Z,101441.41
2019-02-19T01:50:22.787Z,101435.17
2019-02-19T01:52:52.017Z,101435.75
2019-02-19T01:55:21.133Z,101435.55
2019-02-19T01:57:50.154Z,101440.74
2019-02-19T02:00:19.394Z,101432.03
2019-02-19T02:02:48.584Z,101442.23
2019-02-19T02:05:19.226Z,101446.06
2019-02-19T02:07:48.317Z,101431.04
2019-02-19T02:10:17.405Z,101426.87
2019-02-19T02:12:46.463Z,101426.87
2019-02-19T02:15:15.607Z,101418.64
2019-02-19T02:17:44.667Z,101417.49
2019-02-19T02:20:19.497Z,101422.56
2019-02-19T02:22:55.659Z,101422.56
2019-02-19T02:25:33.215Z,101429.14
2019-02-19T02:28:14.812Z,101419.56
2019-02-19T02:30:50.687Z,101428.65
2019-02-19T02:33:44.634Z,101421.58
2019-02-19T02:36:19.716Z,101428.77
2019-02-19T02:39:21.738Z,101428.12
2019-02-19T02:41:50.925Z,101425.23
2019-02-19T02:44:21.216Z,101439.83
2019-02-19T02:46:50.300Z,101443.09
2019-02-19T02:49:19.333Z,101435.62
2019-02-19T02:52:02.346Z,101437.17
2019-02-19T02:55:10.271Z,101437.17
2019-02-19T02:58:06.368Z,101431.40
2019-02-19T03:04:48.504Z,101422.42
2019-02-19T03:07:41.998Z,101411.62
2019-02-19T03:16:43.878Z,101430.27
2019-02-19T03:16:57.967Z,101420.17
2019-02-19T03:19:13.087Z,101422.00
2019-02-19T03:21:42.185Z,101430.67
2019-02-19T03:24:11.237Z,101427.36
2019-02-19T03:26:40.338Z,101421.69
2019-02-19T03:29:09.536Z,101416.56
2019-02-19T03:31:38.711Z,101417.30
2019-02-19T03:34:07.861Z,101424.46
2019-02-19T03:46:14.360Z,101427.00
2019-02-19T03:49:10.034Z,101442.50
2019-02-19T03:52:06.284Z,101442.50
2019-02-19T03:54:36.840Z,101441.95
2019-02-19T03:57:05.922Z,101439.83
2019-02-19T03:59:35.157Z,101444.61
2019-02-19T04:02:06.624Z,101445.73
2019-02-19T04:08:18.436Z,101433.48
2019-02-19T04:11:02.075Z,101433.48
2019-02-19T04:14:25.075Z,101448.10
2019-02-19T04:17:50.760Z,101456.06
2019-02-19T04:20:19.936Z,101456.06
2019-02-19T04:22:49.004Z,101455.39
2019-02-19T04:25:18.474Z,101453.19
2019-02-19T04:27:49.162Z,101458.13
2019-02-19T04:30:18.392Z,101464.50
2019-02-19T04:32:48.724Z,101466.81
2019-02-19T04:35:17.914Z,101466.81
2019-02-19T04:37:48.368Z,101470.45
2019-02-19T04:40:18.927Z,101473.47
2019-02-19T04:42:47.992Z,101468.02
2019-02-19T04:45:17.281Z,101469.33
2019-02-19T04:47:46.596Z,101476.08
2019-02-19T04:50:33.204Z,101474.13
2019-02-19T04:53:01.120Z,101462.81
2019-02-19T04:55:30.381Z,101462.81
2019-02-19T04:58:09.404Z,101475.67
2019-02-19T05:00:36.105Z,101471.74
2019-02-19T05:03:07.525Z,101472.40
2019-02-19T05:05:36.692Z,101471.31
2019-02-19T05:08:05.855Z,101471.31
2019-02-19T05:10:34.971Z,101483.33
2019-02-19T05:13:03.998Z,101484.95
2019-02-19T05:15:34.647Z,101483.73
2019-02-19T05:18:03.741Z,101487.50
2019-02-19T05:20:32.936Z,101484.72
2019-02-19T05:23:02.016Z,101486.59
2019-02-19T05:25:32.482Z,101494.91
2019-02-19T05:28:03.464Z,101492.69
2019-02-19T05:30:34.987Z,101492.69
2019-02-19T05:33:05.772Z,101488.95
2019-02-19T05:35:45.718Z,101488.88
2019-02-19T05:38:14.765Z,101494.02
2019-02-19T05:40:43.867Z,101478.94
2019-02-19T05:43:15.487Z,101492.59
2019-02-19T05:46:02.833Z,101496.05
2019-02-19T05:48:33.992Z,101496.41
2019-02-19T05:51:03.332Z,101500.50
2019-02-19T05:53:32.822Z,101503.34
2019-02-19T05:56:02.033Z,101498.77
2019-02-19T05:58:33.728Z,101495.50
2019-02-19T06:01:06.346Z,101495.50
2019-02-19T06:03:35.394Z,101488.75
2019-02-19T06:06:06.411Z,101488.75
2019-02-19T06:08:38.986Z,101507.33
2019-02-19T06:11:08.403Z,101505.30
2019-02-19T06:13:37.488Z,101513.47
2019-02-19T06:16:06.562Z,101523.51
2019-02-19T06:18:37.011Z,101520.70
2019-02-19T06:21:06.482Z,101530.69
2019-02-19T06:23:35.620Z,101524.63
2019-02-19T06:26:06.971Z,101524.63
2019-02-19T06:28:37.294Z,101533.33
2019-02-19T06:31:06.904Z,101535.42
2019-02-19T06:33:36.937Z,101542.73
2019-02-19T06:36:06.041Z,101521.61
2019-02-19T06:38:35.114Z,101521.61
2019-02-19T06:41:06.307Z,101547.09
2019-02-19T06:43:37.763Z,101554.11
2019-02-19T06:46:06.920Z,101558.55
2019-02-19T06:48:35.999Z,101552.80
2019-02-19T06:51:05.094Z,101559.51
2019-02-19T06:53:34.047Z,101565.20
2019-02-19T06:56:03.061Z,101570.28
2019-02-19T06:58:32.124Z,101567.08
2019-02-19T07:01:01.706Z,101570.62
2019-02-19T07:03:43.788Z,101571.45
2019-02-19T07:06:15.590Z,101579.30
2019-02-19T07:08:44.598Z,101584.44
2019-02-19T07:11:13.635Z,101585.30
2019-02-19T07:13:42.661Z,101594.71
2019-02-19T07:16:13.067Z,101593.91
2019-02-19T07:18:42.079Z,101593.91
2019-02-19T07:21:13.697Z,101594.16
2019-02-19T07:23:42.793Z,101595.80
2019-02-19T07:26:12.727Z,101597.15
2019-02-19T07:28:43.863Z,101605.81
2019-02-19T07:31:15.384Z,101609.94
2019-02-19T07:33:45.260Z,101605.39
2019-02-19T07:36:15.613Z,101609.90
2019-02-19T07:38:44.633Z,101604.08
2019-02-19T07:41:13.905Z,101610.23
2019-02-19T07:43:42.920Z,101603.98
2019-02-19T07:46:14.202Z,101613.94
2019-02-19T07:48:43.218Z,101609.95
2019-02-19T07:51:12.216Z,101610.80
2019-02-19T07:53:41.272Z,101612.70
2019-02-19T07:56:10.383Z,101607.17
2019-02-19T07:58:39.386Z,101613.63
2019-02-19T08:01:08.515Z,101613.63
2019-02-19T08:03:37.705Z,101619.72
2019-02-19T08:06:06.905Z,101624.83
2019-02-19T08:08:35.922Z,101623.00
2019-02-19T08:11:05.994Z,101615.23
2019-02-19T08:13:35.038Z,101628.09
2019-02-19T08:16:04.147Z,101623.72
2019-02-19T08:18:33.162Z,101626.77
2019-02-19T08:21:02.539Z,101629.98
2019-02-19T08:23:31.683Z,101629.98
2019-02-19T08:26:01.904Z,101635.41
2019-02-19T08:28:30.852Z,101629.74
2019-02-19T08:30:59.863Z,101637.98
2019-02-19T08:33:28.877Z,101642.08
2019-02-19T08:35:57.924Z,101646.61
2019-02-19T08:38:28.048Z,101647.16
2019-02-19T08:40:57.078Z,101643.84
2019-02-19T08:43:29.134Z,101655.75
2019-02-19T08:46:01.470Z,101665.75
2019-02-19T08:48:30.426Z,101655.20
2019-02-19T08:50:59.435Z,101663.44
2019-02-19T08:53:28.478Z,101663.44
2019-02-19T08:55:57.591Z,101654.06
2019-02-19T08:58:26.731Z,101654.06
2019-02-19T09:00:55.807Z,101661.73
2019-02-19T09:03:24.864Z,101666.28
2019-02-19T09:05:53.915Z,101667.79
2019-02-19T09:08:22.963Z,101667.41
2019-02-19T09:10:51.999Z,101674.49
2019-02-19T09:13:21.660Z,101666.83
2019-02-19T09:15:50.730Z,101673.88
2019-02-19T09:18:19.766Z,101672.16
2019-02-19T09:20:48.743Z,101672.16
2019-02-19T09:23:17.742Z,101676.50
2019-02-19T09:25:46.948Z,101676.38
2019-02-19T09:28:21.144Z,101678.33
2019-02-19T09:30:52.263Z,101682.62
2019-02-19T09:33:21.394Z,101683.16
2019-02-19T09:35:50.423Z,101680.79
2019-02-19T09:38:20.114Z,101672.67
2019-02-19T09:40:49.118Z,101679.67
2019-02-19T09:43:18.141Z,101679.18
2019-02-19T09:47:22.308Z,101679.18
2019-02-19T09:48:17.957Z,101694.58
2019-02-19T09:50:46.983Z,101693.02
2019-02-19T09:53:20.303Z,101682.75
2019-02-19T09:55:50.662Z,101691.64
2019-02-19T09:58:19.701Z,101685.90
2019-02-19T10:00:49.513Z,101703.57
2019-02-19T10:03:20.633Z,101705.86
2019-02-19T10:05:51.326Z,101705.86
2019-02-19T10:08:20.343Z,101705.15
2019-02-19T10:10:49.389Z,101703.84
2019-02-19T10:13:18.391Z,101711.27
2019-02-19T10:15:54.181Z,101714.00
2019-02-19T10:18:25.533Z,101710.23
2019-02-19T10:20:57.387Z,101706.60
2019-02-19T10:23:26.400Z,101714.00
2019-02-19T10:25:56.640Z,101716.42
2019-02-19T10:28:25.871Z,101716.42
2019-02-19T10:30:54.845Z,101719.64
2019-02-19T10:33:23.945Z,101722.53
2019-02-19T10:35:54.162Z,101714.45
2019-02-19T10:38:23.179Z,101727.58
2019-02-19T10:40:52.203Z,101726.20
2019-02-19T10:43:25.180Z,101726.19
2019-02-19T10:45:54.315Z,101725.39
2019-02-19T10:48:23.356Z,101735.66
2019-02-19T10:50:53.182Z,101730.16
2019-02-19T10:53:22.500Z,101730.05
2019-02-19T10:55:51.504Z,101728.80
2019-02-19T10:58:22.863Z,101728.22
2019-02-19T11:00:51.822Z,101735.25
2019-02-19T11:03:20.995Z,101729.50
2019-02-19T11:05:51.321Z,101736.20
2019-02-19T11:08:20.779Z,101729.95
2019-02-19T11:10:50.882Z,101738.69
2019-02-19T11:13:20.035Z,101733.80
2019-02-19T11:15:49.059Z,101727.81
2019-02-19T11:18:18.080Z,101732.83
2019-02-19T11:20:47.098Z,101724.81
2019-02-19T11:23:16.214Z,101737.39
2019-02-19T11:28:29.498Z,101739.88
2019-02-19T11:30:58.774Z,101739.06
2019-02-19T11:33:27.828Z,101734.80
2019-02-19T11:35:56.915Z,101744.00
2019-02-19T11:38:28.292Z,101729.34
2019-02-19T11:40:57.512Z,101742.73
2019-02-19T11:43:27.955Z,101738.41
2019-02-19T11:45:56.971Z,101736.12
2019-02-19T11:48:26.118Z,101731.30
2019-02-19T11:50:55.135Z,101738.25
2019-02-19T11:53:24.232Z,101732.88
2019-02-19T11:55:53.217Z,101734.27
2019-02-19T11:58:24.551Z,101730.08
2019-02-19T12:00:53.740Z,101726.47
2019-02-19T12:03:22.738Z,101730.16
2019-02-19T12:05:51.951Z,101717.66
2019-02-19T12:08:20.962Z,101717.66
2019-02-19T12:10:50.024Z,101721.02
2019-02-19T12:13:19.075Z,101724.73
2019-02-19T12:15:48.077Z,101713.34
2019-02-19T12:18:17.563Z,101700.19
2019-02-19T12:20:50.778Z,101700.19
2019-02-19T12:23:17.801Z,101708.98
2019-02-19T12:25:46.835Z,101715.65
2019-02-19T12:28:15.883Z,101705.05
2019-02-19T12:30:44.899Z,101705.05
2019-02-19T12:33:15.977Z,101711.27
2019-02-19T12:35:45.975Z,101702.88
2019-02-19T12:38:15.252Z,101714.21
2019-02-19T12:40:44.282Z,101718.43
2019-02-19T12:43:13.333Z,101714.34
2019-02-19T12:45:42.925Z,101733.00
2019-02-19T12:48:12.012Z,101733.00
2019-02-19T12:50:42.461Z,101717.84
2019-02-19T12:53:11.459Z,101720.69
2019-02-19T12:55:43.750Z,101724.47
2019-02-19T12:58:14.104Z,101729.14
2019-02-19T13:00:43.246Z,101721.17
2019-02-19T13:03:12.265Z,101721.17
2019-02-19T13:05:41.303Z,101724.54
2019-02-19T13:08:10.313Z,101724.54
2019-02-19T13:10:39.311Z,101724.09
2019-02-19T13:13:08.305Z,101728.39
2019-02-19T13:15:37.300Z,101727.38
2019-02-19T13:18:06.352Z,101743.00
2019-02-19T13:20:35.342Z,101727.80
2019-02-19T13:23:04.462Z,101736.05
2019-02-19T13:25:33.607Z,101728.90
2019-02-19T13:28:02.622Z,101728.25
2019-02-19T13:30:31.639Z,101737.42
2019-02-19T13:33:03.019Z,101737.94
2019-02-19T13:35:32.162Z,101732.71
2019-02-19T13:38:01.243Z,101739.09
2019-02-19T13:40:30.436Z,101748.59
2019-02-19T13:42:59.486Z,101746.94
2019-02-19T13:45:28.550Z,101742.97
2019-02-19T13:48:05.752Z,101746.94
2019-02-19T13:50:29.853Z,101738.70
2019-02-19T13:53:10.614Z,101742.92
2019-02-19T13:55:44.662Z,101742.45
2019-02-19T13:58:13.691Z,101747.48
2019-02-19T14:00:47.213Z,101752.20
2019-02-19T14:03:16.265Z,101756.27
2019-02-19T14:05:45.286Z,101755.36
2019-02-19T14:08:14.968Z,101753.80
2019-02-19T14:10:45.579Z,101756.27
2019-02-19T14:13:14.654Z,101748.77
2019-02-19T14:15:53.730Z,101756.67
2019-02-19T14:18:28.939Z,101754.73
2019-02-19T14:21:15.570Z,101753.47
2019-02-19T14:24:02.291Z,101765.08
2019-02-19T14:26:49.192Z,101762.81
2019-02-19T14:29:37.230Z,101762.81
2019-02-19T14:32:17.779Z,101770.42
2019-02-19T14:35:04.380Z,101764.53
2019-02-19T14:38:04.704Z,101766.58
2019-02-19T14:40:55.183Z,101766.92
2019-02-19T14:43:34.559Z,101766.92
2019-02-19T14:46:32.540Z,101770.23
2019-02-19T14:49:36.574Z,101766.67
2019-02-19T14:52:13.050Z,101768.55
2019-02-19T14:55:06.592Z,101773.62
2019-02-19T14:58:06.787Z,101775.33
2019-02-19T15:00:54.769Z,101773.13
2019-02-19T15:03:41.889Z,101773.13
2019-02-19T15:06:33.406Z,101773.41
2019-02-19T15:09:33.489Z,101773.41
2019-02-19T15:12:21.477Z,101770.14
2019-02-19T15:15:12.884Z,101763.75
2019-02-19T15:17:55.269Z,101763.75
2019-02-19T15:20:45.589Z,101761.92
2019-02-19T15:23:39.446Z,101761.92
2019-02-19T15:26:26.191Z,101777.38
2019-02-19T15:29:10.139Z,101778.32
2019-02-19T15:32:04.141Z,101781.26
2019-02-19T15:34:44.651Z,101781.28
2019-02-19T15:37:24.004Z,101783.84
2019-02-19T15:40:11.080Z,101783.84
2019-02-19T15:43:05.178Z,101785.33
2019-02-19T15:45:59.237Z,101788.91
2019-02-19T15:48:59.570Z,101788.91
2019-02-19T15:51:45.271Z,101796.91
2019-02-19T15:54:42.385Z,101802.61
2019-02-19T15:57:33.573Z,101807.16
2019-02-19T16:00:36.688Z,101804.83
2019-02-19T16:03:27.669Z,101806.94
2019-02-19T16:06:24.684Z,101805.92
2019-02-19T16:09:00.054Z,101802.20
2019-02-19T16:11:36.337Z,101804.06
2019-02-19T16:14:23.504Z,101804.06
2019-02-19T16:17:08.404Z,101804.00
2019-02-19T16:19:44.066Z,101804.38
2019-02-19T16:22:22.827Z,101805.89
2019-02-19T16:25:10.788Z,101800.52
2019-02-19T16:28:02.256Z,101798.38
2019-02-19T16:31:08.589Z,101802.54
2019-02-19T16:33:59.705Z,101802.65
2019-02-19T16:36:56.700Z,101804.55
2019-02-19T16:39:43.260Z,101804.55
2019-02-19T16:42:30.113Z,101809.70
2019-02-19T16:45:30.490Z,101809.70
2019-02-19T16:48:24.364Z,101814.79
2019-02-19T16:51:11.309Z,101816.41
2019-02-19T16:54:08.567Z,101817.94
2019-02-19T16:56:56.568Z,101816.34
2019-02-19T16:59:43.796Z,101816.34
2019-02-19T17:02:20.194Z,101821.09
2019-02-19T17:05:17.140Z,101818.31
2019-02-19T17:08:01.027Z,101821.56
2019-02-19T17:10:42.470Z,101822.77
2019-02-19T17:13:30.474Z,101821.59
2019-02-19T17:16:11.601Z,101825.55
2019-02-19T17:18:50.942Z,101834.33
2019-02-19T17:21:27.748Z,101827.25
2019-02-19T17:24:10.033Z,101827.25
2019-02-19T17:26:56.414Z,101825.45
2019-02-19T17:29:40.084Z,101821.36
2019-02-19T17:32:29.279Z,101821.36
2019-02-19T17:35:07.363Z,101832.85
2019-02-19T17:37:58.476Z,101833.02
2019-02-19T17:40:55.504Z,101833.02
2019-02-19T17:43:41.378Z,101844.09
2019-02-19T17:46:21.263Z,101844.09
2019-02-19T17:49:01.514Z,101844.13
2019-02-19T17:51:40.294Z,101847.52
2019-02-19T17:54:25.434Z,101849.80
2019-02-19T17:57:05.847Z,101860.62
2019-02-19T17:59:47.483Z,101863.53
2019-02-19T18:02:29.290Z,101868.30
2019-02-19T18:05:06.920Z,101870.69
2019-02-19T18:07:49.585Z,101869.41
2019-02-19T18:10:29.397Z,101867.06
2019-02-19T18:13:26.696Z,101869.39
2019-02-19T18:16:19.109Z,101869.94
2019-02-19T18:18:51.041Z,101875.52
2019-02-19T18:21:20.815Z,101879.75
2019-02-19T18:23:49.838Z,101873.64
2019-02-19T18:26:21.345Z,101873.64
2019-02-19T18:28:50.485Z,101881.17
2019-02-19T18:31:19.598Z,101881.51
2019-02-19T18:33:49.378Z,101881.85
2019-02-19T18:36:21.759Z,101877.46
2019-02-19T18:38:52.919Z,101873.66
2019-02-19T18:41:22.756Z,101881.94
2019-02-19T18:43:52.030Z,101884.86
2019-02-19T18:46:25.560Z,101879.62
2019-02-19T18:49:03.832Z,101873.32
2019-02-19T18:51:34.072Z,101879.40
2019-02-19T18:54:04.107Z,101879.40
2019-02-19T18:56:33.337Z,101873.69
2019-02-19T18:59:06.166Z,101884.09
2019-02-19T19:01:38.079Z,101881.16
2019-02-19T19:04:07.360Z,101884.25
2019-02-19T19:06:36.568Z,101889.73
2019-02-19T19:09:08.345Z,101877.77
2019-02-19T19:11:38.206Z,101882.31
2019-02-19T19:14:07.350Z,101882.31
2019-02-19T19:16:57.540Z,101888.82
2019-02-19T19:19:26.677Z,101888.82
2019-02-19T19:21:55.831Z,101889.09
2019-02-19T19:24:24.957Z,101879.05
2019-02-19T19:26:56.945Z,101884.03
2019-02-19T19:29:26.082Z,101884.03
2019-02-19T19:31:55.188Z,101882.76
2019-02-19T19:34:24.220Z,101892.85
2019-02-19T19:36:54.397Z,101891.27
2019-02-19T19:39:23.469Z,101889.20
2019-02-19T19:41:52.580Z,101885.30
2019-02-19T19:44:21.662Z,101891.80
2019-02-19T19:46:50.792Z,101888.30
2019-02-19T19:49:21.115Z,101888.92
2019-02-19T19:51:51.659Z,101888.92
2019-02-19T19:54:23.451Z,101895.38
2019-02-19T19:56:57.103Z,101897.48
2019-02-19T19:59:29.428Z,101897.48
2019-02-19T20:01:59.424Z,101899.00
2019-02-19T20:04:28.495Z,101899.95
2019-02-19T20:06:57.656Z,101887.94
2019-02-19T20:09:27.342Z,101893.98
2019-02-19T20:11:56.460Z,101892.64
2019-02-19T20:14:25.553Z,101892.64
2019-02-19T20:16:54.622Z,101898.13
2019-02-19T20:19:23.721Z,101896.89
2019-02-19T20:21:54.085Z,101895.82
2019-02-19T20:24:23.104Z,101895.64
2019-02-19T20:26:58.149Z,101894.36
2019-02-19T20:29:29.298Z,101892.20
2019-02-19T20:31:58.506Z,101892.20
2019-02-19T20:34:27.580Z,101901.70
2019-02-19T20:36:56.744Z,101901.88
2019-02-19T20:39:26.258Z,101908.11
2019-02-19T20:41:55.506Z,101905.39
2019-02-19T20:44:25.072Z,101905.39
2019-02-19T20:46:55.136Z,101908.92
2019-02-19T20:49:24.238Z,101906.62
2019-02-19T20:51:55.628Z,101906.62
2019-02-19T20:54:24.658Z,101901.41
2019-02-19T20:56:54.821Z,101907.09
2019-02-19T20:59:23.743Z,101909.21
2019-02-19T21:01:53.455Z,101914.64
2019-02-19T21:04:22.472Z,101917.61
2019-02-19T21:06:52.668Z,101915.80
2019-02-19T21:09:21.807Z,101915.80
2019-02-19T21:11:50.838Z,101918.36
2019-02-19T21:14:21.125Z,101916.19
2019-02-19T21:16:50.229Z,101916.19
2019-02-19T21:19:19.228Z,101913.55
2019-02-19T21:21:48.349Z,101911.06
2019-02-19T21:24:17.445Z,101914.94
2019-02-19T21:26:48.758Z,101916.20
2019-02-19T21:29:17.737Z,101911.42
2019-02-19T21:31:46.808Z,101911.42
2019-02-19T21:34:15.873Z,101920.42
2019-02-19T21:36:46.504Z,101920.42
2019-02-19T21:39:16.682Z,101921.42
2019-02-19T21:41:45.717Z,101918.86
2019-02-19T21:44:14.722Z,101922.20
2019-02-19T21:46:43.728Z,101926.32
2019-02-19T21:49:13.746Z,101926.50
2019-02-19T21:51:42.829Z,101926.70
2019-02-19T21:54:11.914Z,101929.31
2019-02-19T21:56:41.787Z,101929.31
2019-02-19T21:59:11.010Z,101920.52
2019-02-19T22:01:40.125Z,101921.20
2019-02-19T22:04:09.204Z,101924.31
2019-02-19T22:06:38.263Z,101922.16
2019-02-19T22:09:07.842Z,101921.65
2019-02-19T22:11:37.060Z,101921.65
2019-02-19T22:14:06.166Z,101919.54
2019-02-19T22:16:36.533Z,101919.54
2019-02-19T22:19:07.947Z,101920.08
2019-02-19T22:22:03.239Z,101916.53
2019-02-19T22:24:37.964Z,101916.53
2019-02-19T22:27:08.084Z,101924.76
2019-02-19T22:29:38.304Z,101924.25
2019-02-19T22:32:07.941Z,101924.25
2019-02-19T22:34:37.040Z,101931.55
2019-02-19T22:37:06.090Z,101929.54
2019-02-19T22:39:35.109Z,101929.54
2019-02-19T22:42:09.327Z,101932.48
2019-02-19T22:44:38.374Z,101931.22
2019-02-19T22:47:07.471Z,101931.22
2019-02-19T22:49:36.503Z,101935.64
2019-02-19T22:52:12.635Z,101926.01
2019-02-19T22:55:00.833Z,101926.01
2019-02-19T22:57:29.943Z,101928.54
2019-02-19T22:59:59.009Z,101929.83
2019-02-19T23:02:29.834Z,101919.45
2019-02-19T23:04:58.948Z,101921.52
2019-02-19T23:07:28.037Z,101919.83
2019-02-19T23:09:58.277Z,101928.63
2019-02-19T23:12:27.405Z,101925.66
2019-02-19T23:14:56.420Z,101919.73
2019-02-19T23:17:25.551Z,101927.70
2019-02-19T23:19:54.663Z,101924.64
2019-02-19T23:22:23.779Z,101928.23
2019-02-19T23:24:53.668Z,101918.80
2019-02-19T23:27:22.792Z,101922.27
2019-02-19T23:29:54.281Z,101921.03
2019-02-19T23:32:25.652Z,101918.45
2019-02-19T23:35:30.444Z,101918.45
2019-02-19T23:38:00.291Z,101918.95
2019-02-19T23:40:29.367Z,101925.24
2019-02-19T23:42:58.547Z,101924.77
2019-02-19T23:45:27.638Z,101924.77
2019-02-19T23:47:58.120Z,101924.77
2019-02-19T23:50:27.297Z,101916.89
2019-02-19T23:52:56.404Z,101917.86
2019-02-19T23:55:25.507Z,101917.86
2019-02-19T23:57:54.929Z,101919.70
